sensor_id;sensor_type;location;lat;lon;timestamp;temperature;humidity
506;DHT22;551;48.524;9.056;2023-06-14T00:02:12;15.40;1.00
506;DHT22;551;48.524;9.056;2023-06-14T00:04:38;15.30;1.00
506;DHT22;551;48.524;9.056;2023-06-14T00:07:05;15.30;1.00
506;DHT22;551;48.524;9.056;2023-06-14T00:09:33;15.30;1.00
506;DHT22;551;48.524;9.056;2023-06-14T00:11:59;15.20;1.00
506;DHT22;551;48.524;9.056;2023-06-14T00:14:24;15.10;1.00
506;DHT22;551;48.524;9.056;2023-06-14T00:16:50;15.10;1.00
506;DHT22;551;48.524;9.056;2023-06-14T00:19:17;15.00;1.00
506;DHT22;551;48.524;9.056;2023-06-14T00:21:43;15.00;1.00
506;DHT22;551;48.524;9.056;2023-06-14T00:24:08;14.90;1.00
506;DHT22;551;48.524;9.056;2023-06-14T00:26:34;14.90;1.00
506;DHT22;551;48.524;9.056;2023-06-14T00:29:00;14.90;1.00
506;DHT22;551;48.524;9.056;2023-06-14T00:31:25;14.80;1.00
506;DHT22;551;48.524;9.056;2023-06-14T00:33:51;14.80;1.00
506;DHT22;551;48.524;9.056;2023-06-14T00:36:16;14.80;1.00
506;DHT22;551;48.524;9.056;2023-06-14T00:38:42;14.70;1.00
506;DHT22;551;48.524;9.056;2023-06-14T00:41:07;14.60;1.00
506;DHT22;551;48.524;9.056;2023-06-14T00:43:33;14.60;1.00
506;DHT22;551;48.524;9.056;2023-06-14T00:46:00;14.60;1.00
506;DHT22;551;48.524;9.056;2023-06-14T00:48:25;14.60;1.00
506;DHT22;551;48.524;9.056;2023-06-14T00:50:52;14.50;1.00
506;DHT22;551;48.524;9.056;2023-06-14T00:53:18;14.50;1.00
506;DHT22;551;48.524;9.056;2023-06-14T00:55:46;14.40;1.00
506;DHT22;551;48.524;9.056;2023-06-14T00:58:12;14.40;1.00
506;DHT22;551;48.524;9.056;2023-06-14T01:00:38;14.40;1.00
506;DHT22;551;48.524;9.056;2023-06-14T01:03:03;14.40;1.00
506;DHT22;551;48.524;9.056;2023-06-14T01:05:30;14.40;1.00
506;DHT22;551;48.524;9.056;2023-06-14T01:08:28;14.30;1.00
506;DHT22;551;48.524;9.056;2023-06-14T01:11:12;14.30;1.00
506;DHT22;551;48.524;9.056;2023-06-14T01:13:45;14.30;1.00
506;DHT22;551;48.524;9.056;2023-06-14T01:16:12;14.30;1.00
506;DHT22;551;48.524;9.056;2023-06-14T01:18:37;14.30;1.00
506;DHT22;551;48.524;9.056;2023-06-14T01:21:03;14.20;1.00
506;DHT22;551;48.524;9.056;2023-06-14T01:23:32;14.20;1.00
506;DHT22;551;48.524;9.056;2023-06-14T01:25:59;14.20;1.00
506;DHT22;551;48.524;9.056;2023-06-14T01:28:25;14.30;1.00
506;DHT22;551;48.524;9.056;2023-06-14T01:31:00;14.20;1.00
506;DHT22;551;48.524;9.056;2023-06-14T01:33:29;14.10;1.00
506;DHT22;551;48.524;9.056;2023-06-14T01:35:56;14.00;1.00
506;DHT22;551;48.524;9.056;2023-06-14T01:38:25;14.00;1.00
506;DHT22;551;48.524;9.056;2023-06-14T01:40:52;13.90;1.00
506;DHT22;551;48.524;9.056;2023-06-14T01:43:19;13.80;1.00
506;DHT22;551;48.524;9.056;2023-06-14T01:45:47;13.80;1.00
506;DHT22;551;48.524;9.056;2023-06-14T01:48:12;13.80;1.00
506;DHT22;551;48.524;9.056;2023-06-14T01:50:38;13.80;1.00
506;DHT22;551;48.524;9.056;2023-06-14T01:53:07;13.70;1.00
506;DHT22;551;48.524;9.056;2023-06-14T01:55:33;13.70;1.00
506;DHT22;551;48.524;9.056;2023-06-14T01:58:03;13.60;1.00
506;DHT22;551;48.524;9.056;2023-06-14T02:00:31;13.50;1.00
506;DHT22;551;48.524;9.056;2023-06-14T02:02:56;13.50;1.00
506;DHT22;551;48.524;9.056;2023-06-14T02:05:22;13.40;1.00
506;DHT22;551;48.524;9.056;2023-06-14T02:07:48;13.30;1.00
506;DHT22;551;48.524;9.056;2023-06-14T02:10:13;13.30;1.00
506;DHT22;551;48.524;9.056;2023-06-14T02:12:39;13.20;1.00
506;DHT22;551;48.524;9.056;2023-06-14T02:15:05;13.10;1.00
506;DHT22;551;48.524;9.056;2023-06-14T02:17:32;13.10;1.00
506;DHT22;551;48.524;9.056;2023-06-14T02:19:57;13.00;1.00
506;DHT22;551;48.524;9.056;2023-06-14T02:22:23;13.00;1.00
506;DHT22;551;48.524;9.056;2023-06-14T02:24:49;12.90;1.00
506;DHT22;551;48.524;9.056;2023-06-14T02:27:15;12.80;1.00
506;DHT22;551;48.524;9.056;2023-06-14T02:29:41;12.80;1.00
506;DHT22;551;48.524;9.056;2023-06-14T02:32:06;12.80;1.00
506;DHT22;551;48.524;9.056;2023-06-14T02:34:33;12.80;1.00
506;DHT22;551;48.524;9.056;2023-06-14T02:36:59;12.70;1.00
506;DHT22;551;48.524;9.056;2023-06-14T02:39:25;12.70;1.00
506;DHT22;551;48.524;9.056;2023-06-14T02:41:50;12.70;1.00
506;DHT22;551;48.524;9.056;2023-06-14T02:44:18;12.70;1.00
506;DHT22;551;48.524;9.056;2023-06-14T02:46:44;12.70;1.00
506;DHT22;551;48.524;9.056;2023-06-14T02:49:11;12.70;1.00
506;DHT22;551;48.524;9.056;2023-06-14T02:51:36;12.80;1.00
506;DHT22;551;48.524;9.056;2023-06-14T02:54:02;12.80;1.00
506;DHT22;551;48.524;9.056;2023-06-14T02:56:28;12.80;1.00
506;DHT22;551;48.524;9.056;2023-06-14T02:58:54;12.70;1.00
506;DHT22;551;48.524;9.056;2023-06-14T03:01:19;12.70;1.00
506;DHT22;551;48.524;9.056;2023-06-14T03:03:46;12.70;1.00
506;DHT22;551;48.524;9.056;2023-06-14T03:06:11;12.60;1.00
506;DHT22;551;48.524;9.056;2023-06-14T03:08:38;12.60;1.00
506;DHT22;551;48.524;9.056;2023-06-14T03:11:04;12.50;1.00
506;DHT22;551;48.524;9.056;2023-06-14T03:13:34;12.50;1.00
506;DHT22;551;48.524;9.056;2023-06-14T03:16:00;12.50;1.00
506;DHT22;551;48.524;9.056;2023-06-14T03:18:30;12.50;1.00
506;DHT22;551;48.524;9.056;2023-06-14T03:20:56;12.40;1.00
506;DHT22;551;48.524;9.056;2023-06-14T03:23:24;12.40;1.00
506;DHT22;551;48.524;9.056;2023-06-14T03:25:50;12.40;1.00
506;DHT22;551;48.524;9.056;2023-06-14T03:28:16;12.50;1.00
506;DHT22;551;48.524;9.056;2023-06-14T03:30:42;12.40;1.00
506;DHT22;551;48.524;9.056;2023-06-14T03:33:08;12.40;1.00
506;DHT22;551;48.524;9.056;2023-06-14T03:35:33;12.50;1.00
506;DHT22;551;48.524;9.056;2023-06-14T03:37:59;12.50;1.00
506;DHT22;551;48.524;9.056;2023-06-14T03:40:28;12.50;1.00
506;DHT22;551;48.524;9.056;2023-06-14T03:42:54;12.40;1.00
506;DHT22;551;48.524;9.056;2023-06-14T03:45:20;12.50;1.00
506;DHT22;551;48.524;9.056;2023-06-14T03:47:46;12.50;1.00
506;DHT22;551;48.524;9.056;2023-06-14T03:50:12;12.50;1.00
506;DHT22;551;48.524;9.056;2023-06-14T03:52:37;12.50;1.00
506;DHT22;551;48.524;9.056;2023-06-14T03:55:04;12.50;1.00
506;DHT22;551;48.524;9.056;2023-06-14T03:57:30;12.50;1.00
506;DHT22;551;48.524;9.056;2023-06-14T03:59:56;12.50;1.00
506;DHT22;551;48.524;9.056;2023-06-14T04:02:21;12.40;1.00
506;DHT22;551;48.524;9.056;2023-06-14T04:04:48;12.30;1.00
506;DHT22;551;48.524;9.056;2023-06-14T04:07:14;12.20;1.00
506;DHT22;551;48.524;9.056;2023-06-14T04:09:40;12.20;1.00
506;DHT22;551;48.524;9.056;2023-06-14T04:12:06;12.20;1.00
506;DHT22;551;48.524;9.056;2023-06-14T04:14:34;12.20;1.00
506;DHT22;551;48.524;9.056;2023-06-14T04:16:59;12.20;1.00
506;DHT22;551;48.524;9.056;2023-06-14T04:19:25;12.20;1.00
506;DHT22;551;48.524;9.056;2023-06-14T04:21:51;12.20;1.00
506;DHT22;551;48.524;9.056;2023-06-14T04:24:17;12.20;1.00
506;DHT22;551;48.524;9.056;2023-06-14T04:26:43;12.30;1.00
506;DHT22;551;48.524;9.056;2023-06-14T04:29:14;12.30;1.00
506;DHT22;551;48.524;9.056;2023-06-14T04:31:41;12.30;1.00
506;DHT22;551;48.524;9.056;2023-06-14T04:34:07;12.30;1.00
506;DHT22;551;48.524;9.056;2023-06-14T04:36:33;12.40;1.00
506;DHT22;551;48.524;9.056;2023-06-14T04:39:07;12.50;1.00
506;DHT22;551;48.524;9.056;2023-06-14T04:41:33;12.60;1.00
506;DHT22;551;48.524;9.056;2023-06-14T04:44:00;12.60;1.00
506;DHT22;551;48.524;9.056;2023-06-14T04:46:30;12.70;1.00
506;DHT22;551;48.524;9.056;2023-06-14T04:48:57;12.80;1.00
506;DHT22;551;48.524;9.056;2023-06-14T04:51:27;12.90;1.00
506;DHT22;551;48.524;9.056;2023-06-14T04:53:58;13.00;1.00
506;DHT22;551;48.524;9.056;2023-06-14T04:56:24;13.20;1.00
506;DHT22;551;48.524;9.056;2023-06-14T04:58:50;13.60;1.00
506;DHT22;551;48.524;9.056;2023-06-14T05:01:17;14.40;1.00
506;DHT22;551;48.524;9.056;2023-06-14T05:03:42;15.70;1.00
506;DHT22;551;48.524;9.056;2023-06-14T05:06:10;17.00;1.00
506;DHT22;551;48.524;9.056;2023-06-14T05:08:36;18.20;1.00
506;DHT22;551;48.524;9.056;2023-06-14T05:11:02;19.40;1.00
506;DHT22;551;48.524;9.056;2023-06-14T05:13:27;20.30;1.00
506;DHT22;551;48.524;9.056;2023-06-14T05:15:53;21.20;1.00
506;DHT22;551;48.524;9.056;2023-06-14T05:18:19;22.00;1.00
506;DHT22;551;48.524;9.056;2023-06-14T05:20:45;22.80;1.00
506;DHT22;551;48.524;9.056;2023-06-14T05:23:11;23.50;1.00
506;DHT22;551;48.524;9.056;2023-06-14T05:25:44;23.90;1.00
506;DHT22;551;48.524;9.056;2023-06-14T05:28:09;24.50;1.00
506;DHT22;551;48.524;9.056;2023-06-14T05:30:35;25.00;1.00
506;DHT22;551;48.524;9.056;2023-06-14T05:33:01;25.50;1.00
506;DHT22;551;48.524;9.056;2023-06-14T05:35:26;25.90;1.00
506;DHT22;551;48.524;9.056;2023-06-14T05:37:52;26.30;1.00
506;DHT22;551;48.524;9.056;2023-06-14T05:40:19;27.00;1.00
506;DHT22;551;48.524;9.056;2023-06-14T05:42:45;27.70;1.00
506;DHT22;551;48.524;9.056;2023-06-14T05:45:11;28.00;1.00
506;DHT22;551;48.524;9.056;2023-06-14T05:47:36;28.80;1.00
506;DHT22;551;48.524;9.056;2023-06-14T05:50:02;29.30;1.00
506;DHT22;551;48.524;9.056;2023-06-14T05:52:27;29.30;1.00
506;DHT22;551;48.524;9.056;2023-06-14T05:54:53;29.10;1.00
506;DHT22;551;48.524;9.056;2023-06-14T05:57:19;29.40;1.00
506;DHT22;551;48.524;9.056;2023-06-14T05:59:44;30.00;1.00
506;DHT22;551;48.524;9.056;2023-06-14T06:02:10;30.80;1.00
506;DHT22;551;48.524;9.056;2023-06-14T06:04:35;31.10;1.00
506;DHT22;551;48.524;9.056;2023-06-14T06:07:01;31.70;1.00
506;DHT22;551;48.524;9.056;2023-06-14T06:09:26;32.20;1.00
506;DHT22;551;48.524;9.056;2023-06-14T06:11:55;32.80;1.00
506;DHT22;551;48.524;9.056;2023-06-14T06:14:20;33.00;1.00
506;DHT22;551;48.524;9.056;2023-06-14T06:16:46;33.70;1.00
506;DHT22;551;48.524;9.056;2023-06-14T06:19:12;33.70;1.00
506;DHT22;551;48.524;9.056;2023-06-14T06:21:37;34.20;1.00
506;DHT22;551;48.524;9.056;2023-06-14T06:24:04;34.50;1.00
506;DHT22;551;48.524;9.056;2023-06-14T06:26:31;34.30;1.00
506;DHT22;551;48.524;9.056;2023-06-14T06:28:56;34.20;1.00
506;DHT22;551;48.524;9.056;2023-06-14T06:31:22;34.70;1.00
506;DHT22;551;48.524;9.056;2023-06-14T06:33:48;35.40;1.00
506;DHT22;551;48.524;9.056;2023-06-14T06:36:13;36.10;1.00
506;DHT22;551;48.524;9.056;2023-06-14T06:38:39;36.00;1.00
506;DHT22;551;48.524;9.056;2023-06-14T06:41:04;36.20;1.00
506;DHT22;551;48.524;9.056;2023-06-14T06:43:30;36.80;1.00
506;DHT22;551;48.524;9.056;2023-06-14T06:45:55;37.50;1.00
506;DHT22;551;48.524;9.056;2023-06-14T06:48:21;37.70;1.00
506;DHT22;551;48.524;9.056;2023-06-14T06:50:46;38.30;1.00
506;DHT22;551;48.524;9.056;2023-06-14T06:53:12;38.30;1.00
506;DHT22;551;48.524;9.056;2023-06-14T06:55:37;38.20;1.00
506;DHT22;551;48.524;9.056;2023-06-14T06:58:03;38.60;1.00
506;DHT22;551;48.524;9.056;2023-06-14T07:00:30;39.50;1.00
506;DHT22;551;48.524;9.056;2023-06-14T07:02:55;39.50;1.00
506;DHT22;551;48.524;9.056;2023-06-14T07:05:22;39.60;1.00
506;DHT22;551;48.524;9.056;2023-06-14T07:07:48;39.90;1.00
506;DHT22;551;48.524;9.056;2023-06-14T07:10:14;40.00;1.00
506;DHT22;551;48.524;9.056;2023-06-14T07:12:39;39.20;1.00
506;DHT22;551;48.524;9.056;2023-06-14T07:15:08;39.10;1.00
506;DHT22;551;48.524;9.056;2023-06-14T07:17:34;39.10;1.00
506;DHT22;551;48.524;9.056;2023-06-14T07:20:03;39.70;1.00
506;DHT22;551;48.524;9.056;2023-06-14T07:22:32;39.10;1.00
506;DHT22;551;48.524;9.056;2023-06-14T07:24:58;39.80;1.00
506;DHT22;551;48.524;9.056;2023-06-14T07:27:23;39.40;1.00
506;DHT22;551;48.524;9.056;2023-06-14T07:29:49;40.10;1.00
506;DHT22;551;48.524;9.056;2023-06-14T07:32:14;39.40;1.00
506;DHT22;551;48.524;9.056;2023-06-14T07:34:40;39.50;1.00
506;DHT22;551;48.524;9.056;2023-06-14T07:37:05;39.10;1.00
506;DHT22;551;48.524;9.056;2023-06-14T07:39:31;38.90;1.00
506;DHT22;551;48.524;9.056;2023-06-14T07:41:56;38.90;1.00
506;DHT22;551;48.524;9.056;2023-06-14T07:44:22;38.30;1.00
506;DHT22;551;48.524;9.056;2023-06-14T07:46:47;38.80;1.00
506;DHT22;551;48.524;9.056;2023-06-14T07:49:14;39.70;1.00
506;DHT22;551;48.524;9.056;2023-06-14T07:51:40;40.00;1.00
506;DHT22;551;48.524;9.056;2023-06-14T07:54:06;40.30;1.00
506;DHT22;551;48.524;9.056;2023-06-14T07:56:33;40.60;1.00
506;DHT22;551;48.524;9.056;2023-06-14T07:58:58;40.40;1.00
506;DHT22;551;48.524;9.056;2023-06-14T08:01:24;40.80;1.00
506;DHT22;551;48.524;9.056;2023-06-14T08:03:51;40.90;1.00
506;DHT22;551;48.524;9.056;2023-06-14T08:06:16;41.90;1.00
506;DHT22;551;48.524;9.056;2023-06-14T08:08:42;42.70;1.00
506;DHT22;551;48.524;9.056;2023-06-14T08:11:07;43.00;1.00
506;DHT22;551;48.524;9.056;2023-06-14T08:13:33;42.90;1.00
506;DHT22;551;48.524;9.056;2023-06-14T08:15:59;43.90;1.00
506;DHT22;551;48.524;9.056;2023-06-14T08:18:26;44.00;1.00
506;DHT22;551;48.524;9.056;2023-06-14T08:20:52;44.70;1.00
506;DHT22;551;48.524;9.056;2023-06-14T08:23:19;44.10;1.00
506;DHT22;551;48.524;9.056;2023-06-14T08:25:46;45.00;1.00
506;DHT22;551;48.524;9.056;2023-06-14T08:28:15;45.70;1.00
506;DHT22;551;48.524;9.056;2023-06-14T08:30:42;45.60;1.00
506;DHT22;551;48.524;9.056;2023-06-14T08:33:08;45.20;1.00
506;DHT22;551;48.524;9.056;2023-06-14T08:35:33;45.00;1.00
506;DHT22;551;48.524;9.056;2023-06-14T08:38:02;45.10;1.00
506;DHT22;551;48.524;9.056;2023-06-14T08:40:30;44.50;1.00
506;DHT22;551;48.524;9.056;2023-06-14T08:42:57;44.60;1.00
506;DHT22;551;48.524;9.056;2023-06-14T08:45:24;44.00;1.00
506;DHT22;551;48.524;9.056;2023-06-14T08:47:50;43.60;1.00
506;DHT22;551;48.524;9.056;2023-06-14T08:50:20;44.00;1.00
506;DHT22;551;48.524;9.056;2023-06-14T08:52:48;43.50;1.00
506;DHT22;551;48.524;9.056;2023-06-14T08:55:18;43.00;1.00
506;DHT22;551;48.524;9.056;2023-06-14T08:57:46;43.30;1.00
506;DHT22;551;48.524;9.056;2023-06-14T09:00:14;43.20;1.00
506;DHT22;551;48.524;9.056;2023-06-14T09:02:40;42.70;1.00
506;DHT22;551;48.524;9.056;2023-06-14T09:05:11;43.60;1.00
506;DHT22;551;48.524;9.056;2023-06-14T09:07:41;43.00;1.00
506;DHT22;551;48.524;9.056;2023-06-14T09:10:12;43.60;1.00
506;DHT22;551;48.524;9.056;2023-06-14T09:12:38;43.80;1.00
506;DHT22;551;48.524;9.056;2023-06-14T09:15:08;43.50;1.00
506;DHT22;551;48.524;9.056;2023-06-14T09:17:38;44.20;1.00
506;DHT22;551;48.524;9.056;2023-06-14T09:20:08;44.50;1.00
506;DHT22;551;48.524;9.056;2023-06-14T09:22:43;44.40;1.00
506;DHT22;551;48.524;9.056;2023-06-14T09:25:09;44.60;1.00
506;DHT22;551;48.524;9.056;2023-06-14T09:27:36;45.20;1.00
506;DHT22;551;48.524;9.056;2023-06-14T09:30:05;45.00;1.00
506;DHT22;551;48.524;9.056;2023-06-14T09:32:39;45.20;1.00
506;DHT22;551;48.524;9.056;2023-06-14T09:35:09;45.00;1.00
506;DHT22;551;48.524;9.056;2023-06-14T09:37:35;44.50;1.00
506;DHT22;551;48.524;9.056;2023-06-14T09:40:01;43.60;1.00
506;DHT22;551;48.524;9.056;2023-06-14T09:42:28;43.10;1.00
506;DHT22;551;48.524;9.056;2023-06-14T09:44:56;43.20;1.00
506;DHT22;551;48.524;9.056;2023-06-14T09:47:25;43.70;1.00
506;DHT22;551;48.524;9.056;2023-06-14T09:49:51;44.10;1.00
506;DHT22;551;48.524;9.056;2023-06-14T09:52:21;43.80;1.00
506;DHT22;551;48.524;9.056;2023-06-14T09:54:47;44.00;1.00
506;DHT22;551;48.524;9.056;2023-06-14T09:57:16;44.50;1.00
506;DHT22;551;48.524;9.056;2023-06-14T09:59:44;44.90;1.00
506;DHT22;551;48.524;9.056;2023-06-14T10:02:28;45.40;1.00
506;DHT22;551;48.524;9.056;2023-06-14T10:05:08;46.30;1.00
506;DHT22;551;48.524;9.056;2023-06-14T10:07:53;45.90;1.00
506;DHT22;551;48.524;9.056;2023-06-14T10:10:21;44.30;1.00
506;DHT22;551;48.524;9.056;2023-06-14T10:12:47;44.10;1.00
506;DHT22;551;48.524;9.056;2023-06-14T10:15:20;44.60;1.00
506;DHT22;551;48.524;9.056;2023-06-14T10:17:54;45.10;1.00
506;DHT22;551;48.524;9.056;2023-06-14T10:20:26;44.80;1.00
506;DHT22;551;48.524;9.056;2023-06-14T10:23:22;44.80;1.00
506;DHT22;551;48.524;9.056;2023-06-14T10:25:57;44.40;1.00
506;DHT22;551;48.524;9.056;2023-06-14T10:28:23;44.20;1.00
506;DHT22;551;48.524;9.056;2023-06-14T10:31:06;44.10;1.00
506;DHT22;551;48.524;9.056;2023-06-14T10:33:36;43.40;1.00
506;DHT22;551;48.524;9.056;2023-06-14T10:36:25;43.90;1.00
506;DHT22;551;48.524;9.056;2023-06-14T10:41:30;43.20;1.00
506;DHT22;551;48.524;9.056;2023-06-14T10:44:32;43.00;1.00
506;DHT22;551;48.524;9.056;2023-06-14T10:47:01;43.00;1.00
506;DHT22;551;48.524;9.056;2023-06-14T10:49:46;43.10;1.00
506;DHT22;551;48.524;9.056;2023-06-14T10:52:16;43.60;1.00
506;DHT22;551;48.524;9.056;2023-06-14T10:57:24;43.80;1.00
506;DHT22;551;48.524;9.056;2023-06-14T10:59:50;43.30;1.00
506;DHT22;551;48.524;9.056;2023-06-14T11:04:49;43.40;1.00
506;DHT22;551;48.524;9.056;2023-06-14T11:08:17;43.40;1.00
506;DHT22;551;48.524;9.056;2023-06-14T11:10:36;43.30;1.00
506;DHT22;551;48.524;9.056;2023-06-14T11:13:08;44.00;1.00
506;DHT22;551;48.524;9.056;2023-06-14T11:15:35;43.80;1.00
506;DHT22;551;48.524;9.056;2023-06-14T11:18:02;43.90;1.00
506;DHT22;551;48.524;9.056;2023-06-14T11:20:31;42.90;1.00
506;DHT22;551;48.524;9.056;2023-06-14T11:22:57;42.00;1.00
506;DHT22;551;48.524;9.056;2023-06-14T11:25:23;43.00;1.00
506;DHT22;551;48.524;9.056;2023-06-14T11:27:51;43.20;1.00
506;DHT22;551;48.524;9.056;2023-06-14T11:30:17;43.10;1.00
506;DHT22;551;48.524;9.056;2023-06-14T11:32:46;43.00;1.00
506;DHT22;551;48.524;9.056;2023-06-14T11:35:12;43.60;1.00
506;DHT22;551;48.524;9.056;2023-06-14T11:37:39;43.80;1.00
506;DHT22;551;48.524;9.056;2023-06-14T11:40:06;43.30;1.00
506;DHT22;551;48.524;9.056;2023-06-14T11:42:35;43.50;1.00
506;DHT22;551;48.524;9.056;2023-06-14T11:45:01;43.40;1.00
506;DHT22;551;48.524;9.056;2023-06-14T11:47:32;42.50;1.00
506;DHT22;551;48.524;9.056;2023-06-14T11:49:59;41.40;1.00
506;DHT22;551;48.524;9.056;2023-06-14T11:52:25;40.60;1.00
506;DHT22;551;48.524;9.056;2023-06-14T11:54:51;40.60;1.00
506;DHT22;551;48.524;9.056;2023-06-14T11:57:18;39.40;1.00
506;DHT22;551;48.524;9.056;2023-06-14T11:59:44;37.80;1.00
506;DHT22;551;48.524;9.056;2023-06-14T12:02:18;36.80;1.00
506;DHT22;551;48.524;9.056;2023-06-14T12:04:46;35.60;1.00
506;DHT22;551;48.524;9.056;2023-06-14T12:07:13;34.70;1.00
506;DHT22;551;48.524;9.056;2023-06-14T12:12:26;33.30;1.00
506;DHT22;551;48.524;9.056;2023-06-14T12:14:53;32.80;1.00
506;DHT22;551;48.524;9.056;2023-06-14T12:17:19;32.20;1.00
506;DHT22;551;48.524;9.056;2023-06-14T12:19:46;31.90;1.00
506;DHT22;551;48.524;9.056;2023-06-14T12:22:12;31.50;1.00
506;DHT22;551;48.524;9.056;2023-06-14T12:24:38;31.30;1.00
506;DHT22;551;48.524;9.056;2023-06-14T12:27:05;31.30;1.00
506;DHT22;551;48.524;9.056;2023-06-14T12:29:31;31.30;1.00
506;DHT22;551;48.524;9.056;2023-06-14T12:31:57;31.30;1.00
506;DHT22;551;48.524;9.056;2023-06-14T12:34:23;31.30;1.00
506;DHT22;551;48.524;9.056;2023-06-14T12:36:53;31.30;1.00
506;DHT22;551;48.524;9.056;2023-06-14T12:39:19;31.30;1.00
506;DHT22;551;48.524;9.056;2023-06-14T12:41:45;30.90;1.00
506;DHT22;551;48.524;9.056;2023-06-14T12:44:11;30.60;1.00
506;DHT22;551;48.524;9.056;2023-06-14T12:46:37;30.40;1.00
506;DHT22;551;48.524;9.056;2023-06-14T12:49:05;30.40;1.00
506;DHT22;551;48.524;9.056;2023-06-14T12:51:32;30.50;1.00
506;DHT22;551;48.524;9.056;2023-06-14T12:53:57;30.40;1.00
506;DHT22;551;48.524;9.056;2023-06-14T12:56:23;29.90;1.00
506;DHT22;551;48.524;9.056;2023-06-14T12:58:48;29.50;1.00
506;DHT22;551;48.524;9.056;2023-06-14T13:01:14;29.30;1.00
506;DHT22;551;48.524;9.056;2023-06-14T13:03:39;29.20;1.00
506;DHT22;551;48.524;9.056;2023-06-14T13:06:05;29.30;1.00
506;DHT22;551;48.524;9.056;2023-06-14T13:08:31;29.30;1.00
506;DHT22;551;48.524;9.056;2023-06-14T13:10:56;29.30;1.00
506;DHT22;551;48.524;9.056;2023-06-14T13:13:23;29.10;1.00
506;DHT22;551;48.524;9.056;2023-06-14T13:15:48;29.10;1.00
506;DHT22;551;48.524;9.056;2023-06-14T13:18:15;29.10;1.00
506;DHT22;551;48.524;9.056;2023-06-14T13:20:41;29.10;1.00
506;DHT22;551;48.524;9.056;2023-06-14T13:23:06;29.20;1.00
506;DHT22;551;48.524;9.056;2023-06-14T13:25:36;29.30;1.00
506;DHT22;551;48.524;9.056;2023-06-14T13:28:03;29.40;1.00
506;DHT22;551;48.524;9.056;2023-06-14T13:30:29;29.30;1.00
506;DHT22;551;48.524;9.056;2023-06-14T13:32:56;29.10;1.00
506;DHT22;551;48.524;9.056;2023-06-14T13:35:22;29.00;1.00
506;DHT22;551;48.524;9.056;2023-06-14T13:37:48;29.10;1.00
506;DHT22;551;48.524;9.056;2023-06-14T13:40:16;29.10;1.00
506;DHT22;551;48.524;9.056;2023-06-14T13:42:42;29.20;1.00
506;DHT22;551;48.524;9.056;2023-06-14T13:45:08;29.10;1.00
506;DHT22;551;48.524;9.056;2023-06-14T13:47:34;29.20;1.00
506;DHT22;551;48.524;9.056;2023-06-14T13:49:59;29.20;1.00
506;DHT22;551;48.524;9.056;2023-06-14T13:52:25;29.20;1.00
506;DHT22;551;48.524;9.056;2023-06-14T13:54:51;29.30;1.00
506;DHT22;551;48.524;9.056;2023-06-14T13:57:17;29.30;1.00
506;DHT22;551;48.524;9.056;2023-06-14T13:59:43;29.30;1.00
506;DHT22;551;48.524;9.056;2023-06-14T14:02:12;29.40;1.00
506;DHT22;551;48.524;9.056;2023-06-14T14:04:39;29.30;1.00
506;DHT22;551;48.524;9.056;2023-06-14T14:07:05;29.30;1.00
506;DHT22;551;48.524;9.056;2023-06-14T14:09:32;29.00;1.00
506;DHT22;551;48.524;9.056;2023-06-14T14:12:01;28.90;1.00
506;DHT22;551;48.524;9.056;2023-06-14T14:14:31;28.80;1.00
506;DHT22;551;48.524;9.056;2023-06-14T14:16:57;28.40;1.00
506;DHT22;551;48.524;9.056;2023-06-14T14:19:23;28.20;1.00
506;DHT22;551;48.524;9.056;2023-06-14T14:21:48;28.10;1.00
506;DHT22;551;48.524;9.056;2023-06-14T14:24:14;28.10;1.00
506;DHT22;551;48.524;9.056;2023-06-14T14:26:41;28.00;1.00
506;DHT22;551;48.524;9.056;2023-06-14T14:29:06;28.20;1.00
506;DHT22;551;48.524;9.056;2023-06-14T14:31:32;28.30;1.00
506;DHT22;551;48.524;9.056;2023-06-14T14:33:57;28.40;1.00
506;DHT22;551;48.524;9.056;2023-06-14T14:36:23;28.40;1.00
506;DHT22;551;48.524;9.056;2023-06-14T14:38:49;28.50;1.00
506;DHT22;551;48.524;9.056;2023-06-14T14:41:17;28.60;1.00
506;DHT22;551;48.524;9.056;2023-06-14T14:43:42;28.70;1.00
506;DHT22;551;48.524;9.056;2023-06-14T14:46:08;28.70;1.00
506;DHT22;551;48.524;9.056;2023-06-14T14:48:33;28.70;1.00
506;DHT22;551;48.524;9.056;2023-06-14T14:50:59;28.70;1.00
506;DHT22;551;48.524;9.056;2023-06-14T14:53:24;28.50;1.00
506;DHT22;551;48.524;9.056;2023-06-14T14:55:50;28.50;1.00
506;DHT22;551;48.524;9.056;2023-06-14T14:58:15;28.40;1.00
506;DHT22;551;48.524;9.056;2023-06-14T15:00:45;28.30;1.00
506;DHT22;551;48.524;9.056;2023-06-14T15:03:10;28.20;1.00
506;DHT22;551;48.524;9.056;2023-06-14T15:05:36;28.30;1.00
506;DHT22;551;48.524;9.056;2023-06-14T15:08:03;28.20;1.00
506;DHT22;551;48.524;9.056;2023-06-14T15:10:28;28.10;1.00
506;DHT22;551;48.524;9.056;2023-06-14T15:12:54;28.20;1.00
506;DHT22;551;48.524;9.056;2023-06-14T15:15:19;28.30;1.00
506;DHT22;551;48.524;9.056;2023-06-14T15:17:45;28.20;1.00
506;DHT22;551;48.524;9.056;2023-06-14T15:20:11;28.30;1.00
506;DHT22;551;48.524;9.056;2023-06-14T15:22:38;28.20;1.00
506;DHT22;551;48.524;9.056;2023-06-14T15:25:03;28.30;1.00
506;DHT22;551;48.524;9.056;2023-06-14T15:27:29;28.40;1.00
506;DHT22;551;48.524;9.056;2023-06-14T15:29:54;28.50;1.00
506;DHT22;551;48.524;9.056;2023-06-14T15:32:20;28.60;1.00
506;DHT22;551;48.524;9.056;2023-06-14T15:34:46;28.60;1.00
506;DHT22;551;48.524;9.056;2023-06-14T15:37:12;28.60;1.00
506;DHT22;551;48.524;9.056;2023-06-14T15:39:37;28.50;1.00
506;DHT22;551;48.524;9.056;2023-06-14T15:42:04;28.60;1.00
506;DHT22;551;48.524;9.056;2023-06-14T15:44:30;28.50;1.00
506;DHT22;551;48.524;9.056;2023-06-14T15:46:56;28.30;1.00
506;DHT22;551;48.524;9.056;2023-06-14T15:49:22;28.20;1.00
506;DHT22;551;48.524;9.056;2023-06-14T15:51:47;28.00;1.00
506;DHT22;551;48.524;9.056;2023-06-14T15:54:13;27.70;1.00
506;DHT22;551;48.524;9.056;2023-06-14T15:56:38;27.70;1.00
506;DHT22;551;48.524;9.056;2023-06-14T15:59:04;27.60;1.00
506;DHT22;551;48.524;9.056;2023-06-14T16:01:29;27.60;1.00
506;DHT22;551;48.524;9.056;2023-06-14T16:03:55;27.50;1.00
506;DHT22;551;48.524;9.056;2023-06-14T16:06:22;27.50;1.00
506;DHT22;551;48.524;9.056;2023-06-14T16:08:47;27.50;1.00
506;DHT22;551;48.524;9.056;2023-06-14T16:11:13;27.50;1.00
506;DHT22;551;48.524;9.056;2023-06-14T16:13:41;27.30;1.00
506;DHT22;551;48.524;9.056;2023-06-14T16:16:08;27.20;1.00
506;DHT22;551;48.524;9.056;2023-06-14T16:18:34;27.10;1.00
506;DHT22;551;48.524;9.056;2023-06-14T16:20:59;27.00;1.00
506;DHT22;551;48.524;9.056;2023-06-14T16:23:25;26.90;1.00
506;DHT22;551;48.524;9.056;2023-06-14T16:25:50;26.80;1.00
506;DHT22;551;48.524;9.056;2023-06-14T16:28:16;26.80;1.00
506;DHT22;551;48.524;9.056;2023-06-14T16:30:41;26.70;1.00
506;DHT22;551;48.524;9.056;2023-06-14T16:33:07;26.60;1.00
506;DHT22;551;48.524;9.056;2023-06-14T16:35:32;26.50;1.00
506;DHT22;551;48.524;9.056;2023-06-14T16:37:58;26.40;1.00
506;DHT22;551;48.524;9.056;2023-06-14T16:40:23;26.40;1.00
506;DHT22;551;48.524;9.056;2023-06-14T16:42:49;26.30;1.00
506;DHT22;551;48.524;9.056;2023-06-14T16:45:15;26.30;1.00
506;DHT22;551;48.524;9.056;2023-06-14T16:47:41;26.10;1.00
506;DHT22;551;48.524;9.056;2023-06-14T16:50:07;26.00;1.00
506;DHT22;551;48.524;9.056;2023-06-14T16:52:33;25.90;1.00
506;DHT22;551;48.524;9.056;2023-06-14T16:54:59;25.90;1.00
506;DHT22;551;48.524;9.056;2023-06-14T16:57:24;25.80;1.00
506;DHT22;551;48.524;9.056;2023-06-14T16:59:50;25.80;1.00
506;DHT22;551;48.524;9.056;2023-06-14T17:02:15;25.70;1.00